Time;durP1;ratioP1;P1;durP2;ratioP2;P2;SDS_P1;SDS_P2;PMS_P1;PMS_P2;Temp;Humidity;BMP_temperature;BMP_pressure;BME280_temperature;BME280_humidity;BME280_pressure;Samples;Min_cycle;Max_cycle;Signal;HPM_P1;HPM_P2
2023/04/05 00:00:45;;;;;;;5.68;3.03;;;;;;;18.59;32.19;102364.28;4985717;28;20069;-66
2023/04/05 00:03:11;;;;;;;4.70;2.50;;;;;;;18.59;32.06;102366.94;4999081;28;20574;-67
2023/04/05 00:05:38;;;;;;;6.05;2.75;;;;;;;18.56;32.16;102372.38;4983574;28;20121;-67
2023/04/05 00:08:07;;;;;;;4.63;2.70;;;;;;;18.54;32.12;102375.13;4986801;28;20065;-66
2023/04/05 00:10:32;;;;;;;7.10;3.08;;;;;;;18.57;31.94;102377.59;4983096;28;20069;-67
2023/04/05 00:12:58;;;;;;;5.97;2.95;;;;;;;18.56;31.83;102375.03;4968930;28;20042;-67
2023/04/05 00:15:26;;;;;;;6.28;3.00;;;;;;;18.54;31.87;102372.47;4983143;28;20037;-66
2023/04/05 00:17:53;;;;;;;5.32;2.70;;;;;;;18.54;31.81;102374.28;4983073;28;20038;-67
2023/04/05 00:20:18;;;;;;;5.45;2.80;;;;;;;18.52;31.86;102377.00;4982771;28;20050;-68
2023/04/05 00:22:45;;;;;;;5.32;2.75;;;;;;;18.51;32.19;102363.91;4991826;28;20033;-67
2023/04/05 00:25:11;;;;;;;5.65;3.00;;;;;;;18.48;31.81;102365.78;4986582;28;20030;-67
2023/04/05 00:27:41;;;;;;;5.75;2.97;;;;;;;18.45;31.72;102363.31;5004952;28;20356;-68
2023/04/05 00:30:07;;;;;;;5.18;2.88;;;;;;;18.48;31.79;102370.19;4982835;28;20030;-66
2023/04/05 00:32:32;;;;;;;5.00;2.60;;;;;;;18.44;31.86;102358.13;4992507;28;20041;-67
2023/04/05 00:34:57;;;;;;;5.70;2.90;;;;;;;18.45;31.40;102359.81;4982782;28;20034;-67
2023/04/05 00:37:23;;;;;;;5.25;3.13;;;;;;;18.46;31.64;102364.16;4985263;28;20279;-67
2023/04/05 00:39:48;;;;;;;5.15;2.88;;;;;;;18.46;31.76;102358.88;4989173;28;20038;-67
2023/04/05 00:42:14;;;;;;;6.05;3.10;;;;;;;18.44;31.84;102358.13;4997354;28;20034;-67
2023/04/05 00:44:39;;;;;;;5.72;3.00;;;;;;;18.41;31.67;102355.69;4982489;28;20085;-67
2023/04/05 00:47:06;;;;;;;6.50;2.92;;;;;;;18.38;31.93;102347.94;4989121;28;20125;-67
2023/04/05 00:49:33;;;;;;;6.32;2.65;;;;;;;18.37;31.79;102347.06;4991037;28;20087;-68
2023/04/05 00:51:58;;;;;;;5.45;2.50;;;;;;;18.40;31.78;102338.13;4987926;28;20567;-68
2023/04/05 00:54:25;;;;;;;5.15;2.67;;;;;;;18.37;31.83;102340.94;4998340;28;20030;-68
2023/04/05 00:56:52;;;;;;;5.47;2.80;;;;;;;18.39;31.66;102344.34;5001924;28;20124;-66
2023/04/05 00:59:18;;;;;;;5.15;2.60;;;;;;;18.36;31.68;102342.75;4983554;28;20053;-67
2023/04/05 01:01:53;;;;;;;5.03;2.88;;;;;;;18.38;31.76;102342.66;4982404;28;20066;-68
2023/04/05 01:04:25;;;;;;;4.82;2.70;;;;;;;18.36;31.64;102340.09;4997711;28;20474;-65
2023/04/05 01:07:16;;;;;;;8.43;3.00;;;;;;;18.36;31.60;102353.31;4989003;28;20034;-68
2023/04/05 01:09:54;;;;;;;4.35;2.45;;;;;;;18.38;31.69;102353.22;4981934;28;20038;-67
2023/04/05 01:12:22;;;;;;;5.10;2.80;;;;;;;18.31;31.42;102344.81;4981880;28;20552;-67
2023/04/05 01:14:52;;;;;;;4.88;2.42;;;;;;;18.34;31.77;102354.31;4982294;28;20113;-66
2023/04/05 01:17:22;;;;;;;4.30;2.60;;;;;;;18.31;31.56;102343.00;4982743;28;20577;-67
2023/04/05 01:19:59;;;;;;;4.90;2.60;;;;;;;18.32;31.58;102351.75;4990188;28;20069;-67
2023/04/05 01:23:03;;;;;;;5.18;2.67;;;;;;;18.31;31.42;102352.72;4983973;28;20050;-66
2023/04/05 01:25:52;;;;;;;6.00;2.75;;;;;;;18.30;31.45;102346.56;4982375;28;20078;-67
2023/04/05 01:29:03;;;;;;;4.93;2.80;;;;;;;18.30;31.57;102338.66;4989166;28;20057;-67
2023/04/05 01:31:50;;;;;;;5.40;2.75;;;;;;;18.29;31.37;102334.34;4996182;28;20034;-65
2023/04/05 01:34:38;;;;;;;5.00;2.72;;;;;;;18.26;31.45;102333.66;4996051;28;20061;-67
2023/04/05 01:37:10;;;;;;;5.85;2.75;;;;;;;18.26;31.34;102337.16;4981599;28;20038;-66
2023/04/05 01:39:36;;;;;;;4.53;2.63;;;;;;;18.25;31.62;102327.53;4981605;28;20045;-66
2023/04/05 01:42:02;;;;;;;4.78;2.50;;;;;;;18.25;31.35;102327.53;4981281;28;21518;-67
2023/04/05 01:44:28;;;;;;;5.95;3.10;;;;;;;18.23;31.47;102328.53;4994324;28;20048;-67
2023/04/05 01:46:54;;;;;;;4.93;2.50;;;;;;;18.23;31.41;102323.25;4986433;28;20398;-67
2023/04/05 01:49:19;;;;;;;5.00;2.70;;;;;;;18.24;31.44;102323.19;4993594;28;20037;-67
2023/04/05 01:51:45;;;;;;;6.25;2.90;;;;;;;18.22;31.24;102322.44;4981466;28;20038;-66
2023/04/05 01:54:10;;;;;;;4.72;2.53;;;;;;;18.23;31.40;102320.63;4998690;28;20030;-68
2023/04/05 01:56:35;;;;;;;6.18;2.70;;;;;;;18.23;31.20;102316.22;4989833;28;20387;-68
2023/04/05 01:59:01;;;;;;;5.47;2.50;;;;;;;18.21;31.21;102320.72;4973210;28;20382;-67
2023/04/05 02:01:26;;;;;;;5.43;2.60;;;;;;;18.19;31.23;102313.84;4982047;28;20459;-67
2023/04/05 02:03:51;;;;;;;6.60;3.10;;;;;;;18.20;31.33;102316.41;4990380;28;20036;-67
2023/04/05 02:06:17;;;;;;;5.95;2.83;;;;;;;18.17;31.22;102311.31;4989605;28;20548;-67
2023/04/05 02:08:42;;;;;;;4.85;2.67;;;;;;;18.17;31.16;102305.19;4983382;28;20062;-69
2023/04/05 02:11:07;;;;;;;5.38;2.70;;;;;;;18.16;31.22;102303.47;4981437;28;20549;-66
2023/04/05 02:13:33;;;;;;;5.22;2.72;;;;;;;18.15;31.30;102304.41;4987142;28;20152;-66
2023/04/05 02:15:58;;;;;;;4.65;2.67;;;;;;;18.17;31.17;102305.19;4989468;28;20046;-66
2023/04/05 02:18:30;;;;;;;4.72;2.50;;;;;;;18.17;31.23;102308.66;4986198;28;20033;-68
2023/04/05 02:21:06;;;;;;;4.18;2.45;;;;;;;18.12;31.19;102303.66;4981183;28;20054;-67
2023/04/05 02:23:33;;;;;;;4.70;2.50;;;;;;;18.12;30.99;102301.00;4981428;28;20069;-67
2023/04/05 02:25:58;;;;;;;4.65;2.42;;;;;;;18.13;31.32;102313.28;4990485;28;20100;-66
2023/04/05 02:28:24;;;;;;;5.70;2.67;;;;;;;18.13;31.45;102304.50;4991654;28;20180;-67
2023/04/05 02:30:49;;;;;;;5.63;2.95;;;;;;;18.13;31.21;102308.00;5000794;28;20030;-67
2023/04/05 02:33:14;;;;;;;5.75;2.72;;;;;;;18.12;31.24;102303.66;4996544;28;20038;-68
2023/04/05 02:35:40;;;;;;;5.18;2.60;;;;;;;18.13;31.18;102299.22;4964805;28;20049;-67
2023/04/05 02:38:05;;;;;;;4.35;2.72;;;;;;;18.11;30.97;102304.56;4996537;28;20033;-67
2023/04/05 02:40:31;;;;;;;5.00;2.38;;;;;;;18.10;31.31;102299.38;4991296;28;20034;-67
2023/04/05 02:42:57;;;;;;;5.95;2.80;;;;;;;18.08;31.16;102296.00;5003719;28;20033;-67
2023/04/05 02:45:22;;;;;;;6.15;2.67;;;;;;;18.01;31.07;102286.72;4972471;28;20390;-68
2023/04/05 02:47:48;;;;;;;4.75;2.38;;;;;;;18.05;31.17;102297.00;4984354;28;20041;-68
2023/04/05 02:50:13;;;;;;;5.65;2.90;;;;;;;18.03;31.10;102285.72;4984648;28;20426;-67
2023/04/05 02:52:39;;;;;;;6.03;2.70;;;;;;;18.05;31.25;102297.00;4991571;28;20038;-66
2023/04/05 02:55:05;;;;;;;5.30;2.67;;;;;;;18.05;30.91;102297.00;4996307;28;20030;-66
2023/04/05 02:57:30;;;;;;;4.03;2.47;;;;;;;17.98;31.07;102286.94;4984224;28;20034;-67
2023/04/05 02:59:56;;;;;;;4.60;2.42;;;;;;;18.04;30.91;102294.47;4984329;28;20045;-68
2023/04/05 03:02:21;;;;;;;5.30;2.63;;;;;;;18.06;30.88;102290.81;4984188;28;20034;-67
2023/04/05 03:04:46;;;;;;;5.15;2.72;;;;;;;18.05;30.95;102297.00;4988287;28;20744;-68
2023/04/05 03:07:17;;;;;;;4.80;2.60;;;;;;;18.03;30.65;102287.50;4998470;28;20095;-66
2023/04/05 03:09:43;;;;;;;4.72;2.60;;;;;;;18.04;30.95;102289.19;4986246;28;20080;-66
2023/04/05 03:12:08;;;;;;;4.43;2.40;;;;;;;18.02;31.03;102285.78;4983911;28;20092;-67
2023/04/05 03:14:34;;;;;;;6.32;2.60;;;;;;;18.00;30.84;102279.78;4995257;28;20436;-66
2023/04/05 03:17:00;;;;;;;5.82;3.00;;;;;;;18.00;30.79;102274.50;4999040;28;20037;-67
2023/04/05 03:19:26;;;;;;;5.07;2.70;;;;;;;17.98;31.00;102265.84;4994191;28;20085;-67
2023/04/05 03:21:52;;;;;;;4.78;2.70;;;;;;;17.99;30.91;102271.00;4998975;28;20220;-66
2023/04/05 03:24:17;;;;;;;4.55;2.50;;;;;;;17.98;30.84;102266.66;4983938;28;20038;-66
2023/04/05 03:26:44;;;;;;;4.72;2.25;;;;;;;17.99;30.77;102265.75;4983700;28;20447;-66
2023/04/05 03:29:10;;;;;;;6.85;2.90;;;;;;;17.97;30.68;102267.59;4998829;28;20117;-67
2023/04/05 03:31:35;;;;;;;4.15;2.40;;;;;;;17.95;30.91;102257.13;4991068;28;20117;-65
2023/04/05 03:34:01;;;;;;;5.10;2.60;;;;;;;17.92;30.71;102265.22;4994228;28;20117;-67
2023/04/05 03:36:29;;;;;;;4.65;2.42;;;;;;;17.92;30.90;102262.59;4999043;28;20431;-66
2023/04/05 03:38:55;;;;;;;4.70;2.55;;;;;;;17.92;30.76;102262.59;5002831;28;20140;-66
2023/04/05 03:41:20;;;;;;;5.57;2.80;;;;;;;17.91;31.08;102262.66;5002697;28;20108;-68
2023/04/05 03:43:45;;;;;;;5.50;2.70;;;;;;;17.92;30.75;102265.22;4966733;28;20030;-68
2023/04/05 03:46:11;;;;;;;4.85;2.53;;;;;;;17.89;30.93;102257.50;4986481;28;21336;-66
2023/04/05 03:48:36;;;;;;;5.32;2.63;;;;;;;17.92;30.72;102261.75;4988926;28;20109;-66
2023/04/05 03:51:01;;;;;;;5.30;2.80;;;;;;;17.93;30.84;102261.66;4983222;28;20564;-67
2023/04/05 03:53:28;;;;;;;5.53;3.05;;;;;;;17.90;30.68;102255.72;4983571;28;20049;-68
2023/04/05 03:55:54;;;;;;;5.40;2.80;;;;;;;17.89;30.71;102254.84;4983115;28;20084;-66
2023/04/05 03:58:20;;;;;;;5.95;2.80;;;;;;;17.88;30.58;102253.16;4989020;28;20438;-67
2023/04/05 04:00:46;;;;;;;5.30;2.60;;;;;;;17.86;30.92;102252.34;4993358;28;20482;-67
2023/04/05 04:03:12;;;;;;;5.18;2.85;;;;;;;17.87;30.57;102250.59;4983964;28;20049;-67
2023/04/05 04:05:38;;;;;;;5.95;2.85;;;;;;;17.88;30.83;102250.53;4984255;28;20589;-66
2023/04/05 04:08:06;;;;;;;6.00;3.30;;;;;;;17.86;30.75;102240.97;5001976;28;20521;-66
2023/04/05 04:10:33;;;;;;;4.95;2.72;;;;;;;17.85;30.74;102245.41;4990813;28;20070;-67
2023/04/05 04:12:59;;;;;;;5.32;2.80;;;;;;;17.88;30.66;102249.66;4993851;28;20044;-67
2023/04/05 04:15:25;;;;;;;5.47;2.45;;;;;;;17.81;30.49;102235.97;4986389;28;20038;-67
2023/04/05 04:17:50;;;;;;;5.22;3.00;;;;;;;17.84;30.70;102238.41;4992357;28;20160;-66
2023/04/05 04:20:15;;;;;;;5.15;2.40;;;;;;;17.85;30.53;102244.53;4987927;28;20145;-67
2023/04/05 04:22:41;;;;;;;4.70;2.50;;;;;;;17.85;30.69;102247.16;4982793;28;20483;-66
2023/04/05 04:25:11;;;;;;;5.40;2.72;;;;;;;17.82;30.61;102239.47;4991663;28;20030;-66
2023/04/05 04:27:41;;;;;;;5.13;2.80;;;;;;;17.82;30.47;102240.31;4993572;28;20083;-66
2023/04/05 04:30:09;;;;;;;4.53;2.45;;;;;;;17.80;30.67;102244.81;4984406;28;20117;-66
2023/04/05 04:32:51;;;;;;;5.15;2.70;;;;;;;17.80;30.44;102241.31;5002019;28;20375;-66
2023/04/05 04:35:28;;;;;;;5.85;2.67;;;;;;;17.76;30.83;102240.66;4990567;28;20538;-68
2023/04/05 04:38:01;;;;;;;4.72;2.63;;;;;;;17.73;31.15;102246.09;5002009;28;20992;-68
2023/04/05 04:40:37;;;;;;;3.72;1.92;;;;;;;17.71;31.68;102242.72;4989237;28;20034;-67
2023/04/05 04:43:08;;;;;;;4.40;2.30;;;;;;;17.75;32.36;102242.44;4996133;28;20902;-66
2023/04/05 04:45:36;;;;;;;4.25;2.10;;;;;;;17.77;32.24;102248.47;5001891;28;20394;-66
2023/04/05 04:48:03;;;;;;;6.75;2.15;;;;;;;17.81;32.04;102249.16;4987617;28;20034;-66
2023/04/05 04:50:30;;;;;;;4.25;2.20;;;;;;;17.86;31.92;102236.53;4991399;28;20058;-68
2023/04/05 04:52:57;;;;;;;3.95;1.90;;;;;;;17.89;31.89;102239.03;4997935;28;20103;-66
2023/04/05 04:55:25;;;;;;;3.95;1.83;;;;;;;17.93;31.82;102237.09;4995055;28;20065;-66
2023/04/05 04:57:54;;;;;;;3.78;1.88;;;;;;;17.99;31.77;102246.41;4989638;28;20036;-67
2023/04/05 05:00:20;;;;;;;4.93;1.98;;;;;;;18.03;31.51;102243.50;4968993;28;20038;-66
2023/04/05 05:02:46;;;;;;;3.97;2.05;;;;;;;18.05;31.82;102246.06;4999577;28;20444;-68
2023/04/05 05:05:12;;;;;;;4.30;2.10;;;;;;;18.10;31.97;102249.25;5001883;28;20041;-67
2023/04/05 05:07:42;;;;;;;4.03;1.80;;;;;;;18.11;31.81;102240.41;4990222;28;20920;-67
2023/04/05 05:10:11;;;;;;;4.00;1.85;;;;;;;18.12;32.07;102237.69;4994675;28;20030;-68
2023/04/05 05:12:37;;;;;;;4.80;2.10;;;;;;;18.17;31.65;102250.59;4988564;28;20478;-67
2023/04/05 05:15:03;;;;;;;5.47;2.10;;;;;;;18.21;31.54;102256.53;5001643;28;20084;-67
2023/04/05 05:17:31;;;;;;;4.38;1.85;;;;;;;18.22;31.43;102243.25;5000410;28;20046;-67
2023/04/05 05:19:59;;;;;;;4.43;2.20;;;;;;;18.24;31.58;102248.44;4982341;28;20038;-66
2023/04/05 05:22:24;;;;;;;4.35;2.10;;;;;;;18.25;31.58;102237.81;4982154;28;20060;-67
2023/04/05 05:24:49;;;;;;;5.13;2.03;;;;;;;18.25;31.59;102236.97;4981921;28;20042;-67
2023/04/05 05:27:15;;;;;;;4.47;1.90;;;;;;;18.29;31.60;102236.69;4984304;28;20295;-66
2023/04/05 05:29:40;;;;;;;4.18;2.03;;;;;;;18.29;31.56;102241.09;4990325;28;20081;-67
2023/04/05 05:32:06;;;;;;;4.57;2.10;;;;;;;18.30;31.31;102234.88;4972827;28;20037;-68
2023/04/05 05:34:32;;;;;;;4.20;2.10;;;;;;;18.30;31.43;102233.09;4992055;28;20038;-67
2023/04/05 05:36:57;;;;;;;3.80;1.90;;;;;;;18.34;31.49;102246.97;4980076;28;20042;-67
2023/04/05 05:39:23;;;;;;;4.85;2.30;;;;;;;18.33;31.20;102233.88;4991076;28;20462;-68
2023/04/05 05:41:48;;;;;;;4.53;2.20;;;;;;;18.33;31.54;102232.06;4991501;28;20522;-68
2023/04/05 05:44:13;;;;;;;4.35;2.17;;;;;;;18.35;31.41;102237.25;5001050;28;20442;-67
2023/04/05 05:46:39;;;;;;;4.03;2.30;;;;;;;18.36;31.50;102231.00;4982941;28;20073;-67
2023/04/05 05:49:04;;;;;;;5.65;2.25;;;;;;;18.37;31.22;102232.72;4990120;28;20121;-66
2023/04/05 05:51:31;;;;;;;4.03;2.20;;;;;;;18.36;31.33;102231.88;5000876;28;20561;-67
2023/04/05 05:53:56;;;;;;;4.40;2.20;;;;;;;18.39;31.42;102236.13;4985660;28;20038;-68
2023/04/05 05:56:22;;;;;;;4.95;2.55;;;;;;;18.41;31.37;102229.81;4981699;28;20046;-67
2023/04/05 05:58:47;;;;;;;5.93;3.03;;;;;;;18.45;31.10;102233.09;4981435;28;20057;-66
2023/04/05 06:01:13;;;;;;;5.75;2.85;;;;;;;18.48;31.11;102236.44;4996661;28;20272;-68
2023/04/05 06:03:38;;;;;;;4.82;2.60;;;;;;;18.45;31.05;102243.66;4981523;28;20156;-66
2023/04/05 06:06:07;;;;;;;5.97;2.60;;;;;;;18.45;31.53;102244.53;4995602;28;20468;-68
2023/04/05 06:08:32;;;;;;;5.15;2.30;;;;;;;18.38;31.69;102232.63;4984486;28;20118;-67
2023/04/05 06:10:58;;;;;;;4.82;3.00;;;;;;;18.45;31.83;102244.53;4983094;28;20149;-67
2023/04/05 06:13:23;;;;;;;5.05;2.80;;;;;;;18.46;31.84;102245.38;4993630;28;20030;-67
2023/04/05 06:15:49;;;;;;;4.65;2.25;;;;;;;18.44;32.08;102242.00;4987114;28;20534;-66
2023/04/05 06:18:15;;;;;;;4.40;2.30;;;;;;;18.46;32.10;102246.22;5004184;28;20046;-67
2023/04/05 06:20:43;;;;;;;6.32;2.42;;;;;;;18.46;32.23;102250.66;5004504;28;20414;-68
2023/04/05 06:23:09;;;;;;;4.90;2.72;;;;;;;18.47;32.08;102258.47;4999660;28;20053;-66
2023/04/05 06:25:35;;;;;;;5.85;2.50;;;;;;;18.49;32.32;102258.38;5000771;28;20056;-68
2023/04/05 06:28:02;;;;;;;5.47;2.95;;;;;;;18.49;31.97;102255.75;4999459;28;20908;-66
2023/04/05 06:30:27;;;;;;;5.18;2.60;;;;;;;18.51;32.18;102251.22;4985172;28;20034;-67
2023/04/05 06:32:53;;;;;;;4.68;2.20;;;;;;;18.51;31.98;102247.72;4984774;28;20049;-70
2023/04/05 06:35:23;;;;;;;4.93;2.38;;;;;;;18.52;32.42;102249.41;4986534;28;20050;-67
2023/04/05 06:37:48;;;;;;;6.03;2.30;;;;;;;18.56;32.34;102248.31;4998573;28;20046;-68
2023/04/05 06:40:15;;;;;;;5.55;2.45;;;;;;;18.57;32.35;102244.72;5002216;28;20048;-68
2023/04/05 06:42:40;;;;;;;4.72;2.47;;;;;;;18.58;32.20;102243.75;4992207;28;20093;-70
2023/04/05 06:45:06;;;;;;;9.43;2.53;;;;;;;18.58;32.54;102244.63;4984692;28;20026;-68
2023/04/05 06:47:35;;;;;;;7.38;2.53;;;;;;;18.63;32.57;102249.63;4997977;28;20155;-70
2023/04/05 06:50:01;;;;;;;5.55;2.90;;;;;;;18.65;32.76;102253.03;5003945;28;20033;-69
2023/04/05 06:52:27;;;;;;;5.03;2.60;;;;;;;18.66;32.80;102245.00;5000329;28;20031;-70
2023/04/05 06:54:53;;;;;;;4.93;2.50;;;;;;;18.66;32.92;102246.81;4966952;28;20041;-69
2023/04/05 06:57:18;;;;;;;5.90;2.50;;;;;;;18.70;32.65;102252.75;4976269;28;20034;-67
2023/04/05 06:59:43;;;;;;;4.53;2.28;;;;;;;18.66;32.73;102244.16;4979517;28;20084;-68
2023/04/05 07:02:08;;;;;;;5.20;2.37;;;;;;;18.73;32.70;102250.75;5003598;28;20037;-68
2023/04/05 07:04:35;;;;;;;5.93;2.25;;;;;;;18.74;32.88;102256.88;5004415;28;20325;-70
2023/04/05 07:07:01;;;;;;;4.88;2.33;;;;;;;18.74;32.85;102255.09;4993879;28;20506;-69
2023/04/05 07:09:29;;;;;;;5.38;2.40;;;;;;;18.74;32.69;102252.47;4971880;28;20041;-67
2023/04/05 07:11:56;;;;;;;6.35;2.60;;;;;;;18.75;32.76;102248.03;5003776;28;20108;-68
2023/04/05 07:14:21;;;;;;;7.20;2.75;;;;;;;18.79;33.33;102258.31;5004019;28;20386;-67
2023/04/05 07:16:47;;;;;;;6.25;2.72;;;;;;;18.86;34.06;102258.78;4992235;28;20034;-70
2023/04/05 07:19:12;;;;;;;5.93;2.50;;;;;;;18.80;34.49;102249.44;4999071;28;20520;-66
2023/04/05 07:21:38;;;;;;;8.38;2.95;;;;;;;18.90;34.59;102260.31;5000546;28;20052;-67
2023/04/05 07:24:04;;;;;;;6.82;2.80;;;;;;;18.92;34.81;102258.41;4984231;28;20130;-68
2023/04/05 07:26:33;;;;;;;4.75;2.58;;;;;;;18.92;34.81;102254.94;4997087;28;20026;-68
2023/04/05 07:28:59;;;;;;;6.32;3.05;;;;;;;18.93;34.73;102262.78;4987028;28;20491;-69
2023/04/05 07:31:24;;;;;;;6.32;3.08;;;;;;;18.96;34.97;102253.78;5002742;28;20053;-68
2023/04/05 07:33:50;;;;;;;5.28;2.63;;;;;;;18.98;34.75;102249.28;4995159;28;20038;-67
2023/04/05 07:36:15;;;;;;;5.32;2.50;;;;;;;18.99;34.63;102251.81;4994881;28;20033;-68
2023/04/05 07:38:41;;;;;;;6.80;2.80;;;;;;;19.02;34.37;102253.41;5002897;28;20060;-65
2023/04/05 07:41:06;;;;;;;5.28;2.42;;;;;;;19.05;34.21;102253.22;5003531;28;20044;-70
2023/04/05 07:43:31;;;;;;;8.60;2.60;;;;;;;19.04;34.02;102254.16;4994487;28;20057;-70
2023/04/05 07:46:01;;;;;;;9.60;2.78;;;;;;;19.08;34.25;102245.09;4995842;28;20267;-75
2023/04/05 07:48:27;;;;;;;8.10;2.83;;;;;;;19.17;33.55;102254.25;4974829;28;20058;-73
2023/04/05 07:50:52;;;;;;;5.07;2.35;;;;;;;19.25;33.32;102240.50;4994919;28;20036;-71
2023/04/05 07:53:18;;;;;;;6.90;2.55;;;;;;;19.28;33.33;102250.91;4971008;28;20121;-70
2023/04/05 07:55:43;;;;;;;5.03;2.60;;;;;;;19.32;33.28;102241.84;4990358;28;20125;-73
2023/04/05 07:58:09;;;;;;;6.07;2.65;;;;;;;19.31;33.16;102245.41;4996713;28;20038;-73
2023/04/05 08:00:35;;;;;;;6.68;2.70;;;;;;;19.31;33.21;102240.13;4983204;28;20181;-72
2023/04/05 08:03:01;;;;;;;5.95;2.60;;;;;;;19.36;33.15;102238.91;4973267;28;20497;-75
2023/04/05 08:05:27;;;;;;;6.78;2.30;;;;;;;19.39;33.00;102248.41;4986785;28;20062;-74
2023/04/05 08:07:53;;;;;;;6.80;2.60;;;;;;;19.41;33.09;102251.81;4987281;28;20040;-71
2023/04/05 08:10:18;;;;;;;5.93;2.67;;;;;;;19.39;33.13;102244.00;4996874;28;20065;-70
2023/04/05 08:12:44;;;;;;;6.47;2.60;;;;;;;19.38;32.98;102244.94;5001961;28;20116;-68
2023/04/05 08:15:09;;;;;;;6.95;2.85;;;;;;;19.36;32.35;102246.81;4994577;28;20267;-66
2023/04/05 08:17:35;;;;;;;5.32;2.58;;;;;;;19.34;32.98;102246.09;4982327;28;20038;-66
2023/04/05 08:20:00;;;;;;;6.18;2.30;;;;;;;19.28;33.12;102248.25;4986712;28;20080;-67
2023/04/05 08:22:28;;;;;;;5.93;2.70;;;;;;;19.29;33.03;102253.44;4991813;28;20072;-67
2023/04/05 08:24:53;;;;;;;8.13;2.53;;;;;;;19.30;33.11;102249.03;4991137;28;20029;-68
2023/04/05 08:27:19;;;;;;;5.00;2.17;;;;;;;19.31;33.15;102245.41;4969283;28;20088;-66
2023/04/05 08:29:45;;;;;;;5.93;2.40;;;;;;;19.32;33.02;102242.66;4987359;28;20054;-67
2023/04/05 08:32:10;;;;;;;4.65;2.13;;;;;;;19.33;33.05;102244.38;4991688;28;20117;-67
2023/04/05 08:34:36;;;;;;;7.35;2.70;;;;;;;19.32;33.13;102247.13;4983647;28;20509;-66
2023/04/05 08:37:01;;;;;;;5.10;2.17;;;;;;;19.25;33.34;102237.88;4985697;28;20033;-68
2023/04/05 08:39:26;;;;;;;6.70;3.33;;;;;;;19.20;31.29;102233.75;4999462;28;20034;-67
2023/04/05 08:42:07;;;;;;;14.38;3.30;;;;;;;19.18;32.44;102232.13;4967800;28;20036;-73
2023/04/05 08:44:35;;;;;;;5.97;2.50;;;;;;;19.21;32.90;102232.78;4991628;28;20022;-71
2023/04/05 08:47:00;;;;;;;6.47;2.70;;;;;;;19.19;32.81;102234.69;4997412;28;20486;-71
2023/04/05 08:49:26;;;;;;;8.00;2.65;;;;;;;19.25;32.55;102238.75;4988302;28;20040;-70
2023/04/05 08:51:53;;;;;;;5.55;2.83;;;;;;;19.25;32.63;102238.75;4997263;28;20042;-72
2023/04/05 08:54:19;;;;;;;5.10;2.40;;;;;;;19.21;32.29;102240.72;5011775;28;20375;-74
2023/04/05 08:56:46;;;;;;;8.77;2.47;;;;;;;19.19;32.60;102234.69;4988020;28;20049;-74
2023/04/05 08:59:14;;;;;;;5.35;2.08;;;;;;;19.23;32.80;102232.69;4995882;28;20549;-69
2023/04/05 09:01:43;;;;;;;5.10;2.00;;;;;;;19.24;32.48;102237.03;4996609;28;20069;-68
2023/04/05 09:04:17;;;;;;;6.45;2.10;;;;;;;19.24;32.38;102226.47;4997867;28;20030;-69
2023/04/05 09:06:43;;;;;;;5.72;2.10;;;;;;;19.27;32.21;102234.19;4990070;28;20069;-70
2023/04/05 09:09:10;;;;;;;4.38;2.15;;;;;;;19.24;31.99;102230.91;4982042;28;20046;-69
2023/04/05 09:11:35;;;;;;;5.50;2.22;;;;;;;19.21;32.32;102224.00;4999999;28;20582;-71
2023/04/05 09:14:05;;;;;;;7.65;2.10;;;;;;;19.19;32.76;102232.03;4995362;28;20030;-69
2023/04/05 09:16:35;;;;;;;7.20;2.15;;;;;;;19.18;32.56;102224.22;4986917;28;20045;-70
2023/04/05 09:19:00;;;;;;;6.32;2.22;;;;;;;19.13;32.24;102224.50;4967272;28;20030;-72
2023/04/05 09:21:28;;;;;;;5.10;1.90;;;;;;;19.11;32.79;102221.13;4982503;28;20065;-69
2023/04/05 09:23:54;;;;;;;4.25;1.98;;;;;;;19.12;32.67;102224.59;4979984;28;20105;-72
2023/04/05 09:26:22;;;;;;;4.90;2.13;;;;;;;19.11;32.47;102221.13;4981605;28;20038;-68
2023/04/05 09:28:48;;;;;;;5.18;2.10;;;;;;;19.11;31.89;102215.84;4988148;28;20045;-71
2023/04/05 09:31:34;;;;;;;8.25;2.45;;;;;;;19.10;32.18;102211.47;4979669;28;20464;-69
2023/04/05 09:34:03;;;;;;;4.40;2.10;;;;;;;19.19;32.40;102212.72;4990000;28;20120;-73
2023/04/05 09:36:32;;;;;;;5.53;2.20;;;;;;;19.31;32.24;102214.56;4992325;28;20262;-72
2023/04/05 09:39:07;;;;;;;6.20;2.40;;;;;;;19.31;32.08;102218.97;4982448;28;20030;-71
2023/04/05 09:41:33;;;;;;;5.57;2.20;;;;;;;19.30;31.81;102210.22;4996750;28;20064;-69
2023/04/05 09:43:59;;;;;;;4.80;2.00;;;;;;;19.27;31.79;102202.47;4984592;28;20062;-68
2023/04/05 09:46:30;;;;;;;4.75;1.75;;;;;;;19.26;31.58;102214.00;4984341;28;20112;-70
2023/04/05 09:48:56;;;;;;;6.40;2.10;;;;;;;19.15;32.10;102212.06;4992501;28;20919;-67
2023/04/05 09:51:22;;;;;;;4.80;2.22;;;;;;;19.11;32.07;102215.00;4996368;28;20513;-69
2023/04/05 09:54:01;;;;;;;4.82;1.83;;;;;;;19.06;32.16;102215.28;4983541;28;20062;-68
2023/04/05 09:56:28;;;;;;;4.20;1.77;;;;;;;19.04;32.39;102211.88;4988767;28;20042;-68
2023/04/05 09:59:00;;;;;;;5.22;1.80;;;;;;;19.02;32.21;102211.97;4982602;28;20033;-68
2023/04/05 10:01:27;;;;;;;5.10;2.00;;;;;;;19.03;32.54;102208.38;4973039;28;20463;-71
2023/04/05 10:03:53;;;;;;;4.55;1.67;;;;;;;19.18;32.33;102201.28;4990500;28;20037;-73
2023/04/05 10:06:18;;;;;;;8.40;1.83;;;;;;;19.12;32.33;102204.31;4985276;28;20042;-71
2023/04/05 10:08:46;;;;;;;7.00;2.17;;;;;;;19.09;32.72;102203.66;4989290;28;20046;-74
2023/04/05 10:11:16;;;;;;;3.53;1.70;;;;;;;19.05;32.25;102203.00;4998747;28;20042;-70
2023/04/05 10:13:42;;;;;;;6.93;2.08;;;;;;;19.05;32.35;102195.09;4991956;28;20038;-72
2023/04/05 10:16:12;;;;;;;6.20;1.92;;;;;;;19.00;32.24;102178.69;4987593;28;20088;-68
2023/04/05 10:18:50;;;;;;;5.03;1.70;;;;;;;19.08;32.08;102189.59;4981914;28;20125;-71
2023/04/05 10:21:20;;;;;;;4.63;1.92;;;;;;;19.10;32.12;102185.06;4990483;28;20046;-69
2023/04/05 10:23:53;;;;;;;3.97;1.75;;;;;;;19.10;32.12;102178.94;4982967;28;20835;-69
2023/04/05 10:26:34;;;;;;;5.55;1.83;;;;;;;19.10;32.30;102176.28;4984598;28;20044;-69
2023/04/05 10:29:09;;;;;;;5.50;1.70;;;;;;;19.08;32.37;102186.13;4991388;28;20033;-70
2023/04/05 10:31:45;;;;;;;3.55;1.67;;;;;;;19.08;32.37;102178.19;4986366;28;20069;-70
2023/04/05 10:34:47;;;;;;;4.40;1.85;;;;;;;19.08;32.20;102167.63;4984093;28;20045;-69
2023/04/05 10:37:51;;;;;;;4.68;1.70;;;;;;;19.24;32.25;102176.25;4985325;28;20045;-66
2023/04/05 10:40:21;;;;;;;4.25;1.75;;;;;;;19.34;32.02;102172.06;4996765;28;20498;-67
2023/04/05 10:42:47;;;;;;;5.80;1.80;;;;;;;19.37;32.12;102171.00;4996257;28;20061;-68
2023/04/05 10:45:18;;;;;;;5.13;1.70;;;;;;;19.37;32.32;102171.00;4992730;28;20487;-68
2023/04/05 10:47:54;;;;;;;3.83;1.77;;;;;;;19.34;32.58;102168.56;4984650;28;20494;-67
2023/04/05 10:50:22;;;;;;;5.63;1.75;;;;;;;19.34;32.27;102172.06;4998938;28;20045;-68
2023/04/05 10:52:48;;;;;;;6.90;1.98;;;;;;;19.33;32.05;102161.59;5002870;28;20422;-69
2023/04/05 10:55:15;;;;;;;3.90;1.80;;;;;;;19.26;32.30;102168.22;4998392;28;20034;-66
2023/04/05 10:57:41;;;;;;;5.18;2.00;;;;;;;19.25;32.29;102163.88;4981367;28;20124;-69
2023/04/05 11:00:09;;;;;;;6.20;1.92;;;;;;;19.22;32.32;102164.94;4986537;28;20117;-71
2023/04/05 11:02:35;;;;;;;4.90;2.10;;;;;;;19.20;32.44;102150.94;4985145;28;20038;-71
2023/04/05 11:05:04;;;;;;;5.80;2.05;;;;;;;19.15;32.37;102148.63;4988798;28;20044;-74
2023/04/05 11:07:43;;;;;;;7.07;2.55;;;;;;;19.12;31.42;102143.56;4989472;28;20060;-74
2023/04/05 11:10:16;;;;;;;4.97;2.00;;;;;;;19.11;32.12;102147.13;4990602;28;20048;-73
2023/04/05 11:12:45;;;;;;;5.13;2.03;;;;;;;19.11;32.33;102147.13;4992282;28;20040;-72
2023/04/05 11:15:32;;;;;;;5.97;2.30;;;;;;;19.06;32.75;102148.34;4985159;28;20275;-73
2023/04/05 11:18:07;;;;;;;4.72;1.65;;;;;;;19.02;32.75;102134.50;4990032;28;20040;-72
2023/04/05 11:20:43;;;;;;;4.97;1.73;;;;;;;19.01;32.69;102140.75;4988678;28;20062;-75
2023/04/05 11:23:14;;;;;;;5.13;1.90;;;;;;;19.01;32.46;102141.59;4987990;28;20076;-66
2023/04/05 11:25:45;;;;;;;8.57;2.40;;;;;;;19.03;32.49;102139.69;4989636;28;20826;-67
2023/04/05 11:28:28;;;;;;;5.97;2.17;;;;;;;19.06;32.62;102136.03;4986922;28;20026;-70